createdAt,value
2018-09-05T00:00:08.008Z,79.80
2018-09-05T00:00:41.593Z,79.80
2018-09-05T00:01:15.196Z,79.80
2018-09-05T00:01:48.800Z,79.70
2018-09-05T00:02:23.172Z,79.50
2018-09-05T00:02:56.660Z,79.50
2018-09-05T00:03:30.193Z,79.50
2018-09-05T00:04:04.790Z,79.60
2018-09-05T00:04:38.325Z,79.80
2018-09-05T00:05:11.920Z,79.80
2018-09-05T00:05:46.388Z,79.70
2018-09-05T00:06:21.616Z,79.80
2018-09-05T00:06:55.926Z,79.80
2018-09-05T00:07:29.495Z,79.90
2018-09-05T00:08:03.080Z,80.00
2018-09-05T00:08:36.632Z,80.10
2018-09-05T00:09:10.404Z,80.30
2018-09-05T00:09:44.011Z,80.50
2018-09-05T00:10:17.539Z,80.60
2018-09-05T00:10:50.981Z,80.80
2018-09-05T00:11:24.565Z,80.90
2018-09-05T00:11:58.206Z,80.90
2018-09-05T00:12:32.462Z,81.10
2018-09-05T00:13:06.240Z,81.10
2018-09-05T00:13:41.584Z,81.10
2018-09-05T00:14:15.140Z,81.00
2018-09-05T00:14:48.644Z,81.00
2018-09-05T00:15:22.113Z,81.00
2018-09-05T00:15:56.525Z,80.90
2018-09-05T00:16:30.045Z,80.60
2018-09-05T00:17:03.678Z,80.50
2018-09-05T00:17:37.207Z,80.50
2018-09-05T00:18:10.792Z,80.40
2018-09-05T00:18:44.293Z,80.40
2018-09-05T00:19:17.841Z,80.40
2018-09-05T00:19:51.305Z,80.50
2018-09-05T00:20:24.766Z,80.50
2018-09-05T00:20:58.305Z,80.50
2018-09-05T00:21:31.941Z,80.30
2018-09-05T00:22:05.648Z,80.30
2018-09-05T00:22:40.228Z,80.30
2018-09-05T00:23:13.747Z,80.40
2018-09-05T00:23:47.264Z,80.60
2018-09-05T00:24:20.783Z,80.70
2018-09-05T00:24:54.335Z,80.70
2018-09-05T00:25:27.957Z,80.60
2018-09-05T00:26:01.644Z,80.50
2018-09-05T00:26:35.340Z,80.30
2018-09-05T00:27:09.261Z,80.60
2018-09-05T00:27:42.804Z,80.40
2018-09-05T00:28:17.002Z,80.40
2018-09-05T00:28:50.576Z,80.20
2018-09-05T00:29:24.194Z,80.10
2018-09-05T00:29:57.712Z,80.10
2018-09-05T00:30:31.358Z,80.40
2018-09-05T00:31:05.588Z,81.20
2018-09-05T00:31:40.087Z,80.60
2018-09-05T00:32:14.888Z,80.80
2018-09-05T00:32:48.997Z,80.90
2018-09-05T00:33:22.688Z,80.90
2018-09-05T00:33:56.839Z,81.00
2018-09-05T00:34:30.275Z,81.00
2018-09-05T00:35:04.574Z,81.10
2018-09-05T00:35:38.037Z,81.20
2018-09-05T00:36:11.580Z,81.10
2018-09-05T00:36:45.025Z,81.20
2018-09-05T00:37:18.924Z,80.90
2018-09-05T00:37:52.496Z,80.60
2018-09-05T00:38:26.406Z,80.60
2018-09-05T00:39:00.078Z,80.50
2018-09-05T00:39:33.866Z,80.50
2018-09-05T00:40:08.537Z,80.40
2018-09-05T00:40:42.105Z,80.50
2018-09-05T00:41:16.221Z,80.10
2018-09-05T00:41:50.460Z,79.90
2018-09-05T00:42:24.402Z,80.00
2018-09-05T00:42:58.213Z,80.10
2018-09-05T00:43:31.713Z,80.10
2018-09-05T00:44:05.530Z,80.30
2018-09-05T00:44:39.408Z,80.50
2018-09-05T00:45:13.738Z,80.50
2018-09-05T00:45:47.260Z,80.60
2018-09-05T00:46:20.829Z,80.50
2018-09-05T00:46:54.408Z,80.50
2018-09-05T00:47:28.516Z,80.50
2018-09-05T00:48:02.721Z,80.50
2018-09-05T00:48:37.103Z,80.30
2018-09-05T00:49:11.172Z,80.30
2018-09-05T00:49:44.774Z,80.30
2018-09-05T00:50:18.946Z,80.30
2018-09-05T00:50:52.498Z,80.30
2018-09-05T00:51:26.072Z,80.30
2018-09-05T00:51:59.672Z,80.30
2018-09-05T00:52:33.259Z,80.10
2018-09-05T00:53:06.781Z,80.20
2018-09-05T00:53:40.280Z,80.30
2018-09-05T00:54:14.120Z,80.60
2018-09-05T00:54:48.371Z,80.50
2018-09-05T00:55:21.813Z,80.50
2018-09-05T00:55:55.242Z,80.50
2018-09-05T00:56:28.856Z,80.30
2018-09-05T00:57:02.338Z,80.00
2018-09-05T00:57:35.926Z,79.80
2018-09-05T00:58:10.297Z,79.70
2018-09-05T00:58:43.898Z,79.50
2018-09-05T00:59:17.510Z,79.30
2018-09-05T00:59:51.285Z,79.10
2018-09-05T01:00:24.816Z,78.70
2018-09-05T01:00:58.506Z,78.90
2018-09-05T01:01:31.979Z,78.70
2018-09-05T01:02:05.497Z,78.70
2018-09-05T01:02:39.011Z,78.60
2018-09-05T01:03:12.654Z,78.60
2018-09-05T01:03:46.632Z,78.40
2018-09-05T01:04:20.224Z,78.50
2018-09-05T01:04:53.759Z,78.70
2018-09-05T01:05:27.276Z,78.70
2018-09-05T01:06:00.760Z,78.90
2018-09-05T01:06:34.489Z,79.00
2018-09-05T01:07:18.990Z,79.00
2018-09-05T01:07:52.598Z,78.80
2018-09-05T01:08:26.130Z,78.80
2018-09-05T01:08:59.641Z,78.90
2018-09-05T01:09:33.206Z,78.80
2018-09-05T01:10:06.740Z,78.60
2018-09-05T01:10:40.245Z,78.60
2018-09-05T01:11:14.270Z,78.60
2018-09-05T01:11:47.744Z,78.60
2018-09-05T01:12:22.232Z,78.80
2018-09-05T01:12:55.754Z,79.10
2018-09-05T01:13:29.336Z,79.20
2018-09-05T01:14:02.922Z,79.20
2018-09-05T01:14:36.527Z,78.90
2018-09-05T01:15:10.012Z,78.50
2018-09-05T01:15:43.746Z,78.40
2018-09-05T01:16:17.366Z,78.90
2018-09-05T01:16:50.882Z,79.00
2018-09-05T01:17:24.392Z,79.20
2018-09-05T01:17:57.984Z,79.30
2018-09-05T01:18:31.449Z,79.30
2018-09-05T01:19:05.000Z,79.30
2018-09-05T01:19:39.097Z,79.50
2018-09-05T01:20:12.624Z,79.30
2018-09-05T01:20:46.194Z,79.50
2018-09-05T01:21:19.705Z,79.70
2018-09-05T01:21:53.271Z,79.60
2018-09-05T01:22:26.744Z,79.50
2018-09-05T01:23:00.294Z,79.50
2018-09-05T01:23:33.809Z,79.30
2018-09-05T01:24:07.884Z,79.20
2018-09-05T01:24:41.408Z,78.90
2018-09-05T01:25:14.866Z,78.70
2018-09-05T01:25:48.394Z,78.70
2018-09-05T01:26:21.929Z,78.60
2018-09-05T01:26:55.417Z,78.40
2018-09-05T01:27:28.936Z,78.40
2018-09-05T01:28:02.487Z,78.50
2018-09-05T01:28:36.027Z,78.40
2018-09-05T01:29:09.532Z,78.40
2018-09-05T01:29:43.402Z,78.60
2018-09-05T01:30:16.977Z,78.60
2018-09-05T01:30:50.837Z,78.80
2018-09-05T01:31:24.324Z,78.90
2018-09-05T01:31:59.337Z,78.80
2018-09-05T01:32:33.023Z,78.70
2018-09-05T01:33:06.520Z,78.50
2018-09-05T01:33:40.060Z,78.60
2018-09-05T01:34:15.046Z,78.80
2018-09-05T01:34:48.507Z,78.80
2018-09-05T01:35:22.040Z,78.80
2018-09-05T01:36:27.138Z,78.90
2018-09-05T01:37:00.689Z,79.00
2018-09-05T01:37:34.188Z,79.30
2018-09-05T01:38:08.151Z,79.50
2018-09-05T01:38:42.280Z,79.50
2018-09-05T01:39:15.799Z,79.50
2018-09-05T01:39:49.707Z,79.40
2018-09-05T01:40:23.202Z,79.60
2018-09-05T01:40:56.717Z,79.80
2018-09-05T01:41:30.908Z,79.80
2018-09-05T01:42:04.632Z,79.80
2018-09-05T01:42:38.231Z,79.60
2018-09-05T01:43:12.159Z,79.60
2018-09-05T01:43:45.666Z,80.30
2018-09-05T01:44:19.209Z,79.50
2018-09-05T01:44:52.755Z,79.50
2018-09-05T01:45:26.287Z,79.60
2018-09-05T01:45:59.833Z,79.50
2018-09-05T01:46:33.387Z,79.30
2018-09-05T01:47:06.949Z,79.20
2018-09-05T01:47:40.453Z,79.00
2018-09-05T01:48:14.007Z,79.00
2018-09-05T01:48:47.516Z,79.10
2018-09-05T01:49:21.647Z,78.90
2018-09-05T01:49:55.572Z,78.90
2018-09-05T01:50:34.505Z,78.70
2018-09-05T01:51:08.102Z,78.50
2018-09-05T01:51:42.195Z,78.40
2018-09-05T01:52:17.233Z,78.20
2018-09-05T01:52:50.715Z,78.30
2018-09-05T01:53:24.189Z,78.70
2018-09-05T01:53:58.316Z,79.00
2018-09-05T01:54:32.461Z,79.00
2018-09-05T01:55:06.109Z,79.10
2018-09-05T01:55:40.174Z,79.30
2018-09-05T01:56:13.761Z,79.30
2018-09-05T01:56:47.264Z,79.40
2018-09-05T01:57:21.387Z,79.40
2018-09-05T01:57:54.908Z,79.30
2018-09-05T01:58:28.419Z,79.30
2018-09-05T01:59:01.920Z,79.30
2018-09-05T01:59:35.407Z,79.30
2018-09-05T02:00:13.267Z,79.40
2018-09-05T02:00:46.861Z,79.70
2018-09-05T02:01:20.391Z,79.80
2018-09-05T02:01:54.102Z,79.60
2018-09-05T02:02:27.935Z,79.50
2018-09-05T02:03:01.518Z,79.60
2018-09-05T02:03:35.052Z,79.30
2018-09-05T02:04:08.620Z,79.30
2018-09-05T02:04:43.402Z,79.50
2018-09-05T02:05:17.195Z,79.50
2018-09-05T02:05:50.703Z,79.60
2018-09-05T02:06:24.786Z,79.70
2018-09-05T02:06:58.324Z,79.70
2018-09-05T02:07:31.960Z,79.70
2018-09-05T02:08:05.516Z,79.60
2018-09-05T02:08:38.962Z,79.50
2018-09-05T02:09:13.712Z,79.50
2018-09-05T02:09:47.214Z,79.40
2018-09-05T02:10:20.703Z,79.40
2018-09-05T02:10:54.283Z,79.40
2018-09-05T02:11:27.787Z,79.40
2018-09-05T02:12:01.245Z,79.10
2018-09-05T02:12:35.195Z,79.10
2018-09-05T02:13:08.736Z,79.30
2018-09-05T02:13:42.239Z,79.40
2018-09-05T02:14:15.797Z,79.50
2018-09-05T02:14:49.824Z,79.50
2018-09-05T02:15:23.984Z,79.10
2018-09-05T02:15:57.589Z,78.50
2018-09-05T02:16:31.080Z,78.40
2018-09-05T02:17:04.659Z,78.30
2018-09-05T02:17:38.197Z,78.40
2018-09-05T02:18:11.699Z,78.60
2018-09-05T02:18:45.299Z,78.70
2018-09-05T02:19:18.839Z,78.70
2018-09-05T02:19:52.359Z,78.80
2018-09-05T02:20:25.940Z,78.80
2018-09-05T02:20:59.464Z,79.10
2018-09-05T02:21:33.036Z,80.00
2018-09-05T02:22:06.667Z,79.20
2018-09-05T02:22:40.232Z,79.30
2018-09-05T02:23:14.399Z,79.40
2018-09-05T02:23:48.614Z,79.40
2018-09-05T02:24:22.611Z,79.40
2018-09-05T02:24:56.146Z,79.40
2018-09-05T02:25:29.727Z,79.50
2018-09-05T02:26:03.288Z,79.40
2018-09-05T02:26:36.954Z,79.40
2018-09-05T02:27:10.497Z,79.50
2018-09-05T02:27:44.122Z,79.20
2018-09-05T02:28:18.611Z,79.30
2018-09-05T02:28:52.398Z,79.00
2018-09-05T02:29:25.883Z,79.00
2018-09-05T02:29:59.479Z,79.00
2018-09-05T02:30:32.984Z,79.10
2018-09-05T02:31:06.861Z,78.80
2018-09-05T02:31:40.345Z,79.50
2018-09-05T02:32:13.945Z,79.30
2018-09-05T02:32:47.442Z,79.40
2018-09-05T02:33:21.412Z,79.40
2018-09-05T02:33:54.931Z,79.40
2018-09-05T02:34:29.159Z,79.40
2018-09-05T02:35:02.952Z,79.40
2018-09-05T02:35:36.554Z,79.40
2018-09-05T02:36:10.056Z,79.40
2018-09-05T02:36:43.600Z,79.30
2018-09-05T02:37:17.227Z,79.20
2018-09-05T02:37:50.865Z,79.10
2018-09-05T02:38:24.506Z,79.10
2018-09-05T02:38:58.020Z,79.10
2018-09-05T02:39:31.511Z,79.30
2018-09-05T02:40:05.683Z,79.20
2018-09-05T02:40:39.226Z,79.10
2018-09-05T02:41:12.708Z,79.20
2018-09-05T02:41:46.152Z,80.00
2018-09-05T02:42:19.594Z,79.40
2018-09-05T02:42:53.071Z,79.20
2018-09-05T02:43:31.872Z,79.40
2018-09-05T02:44:10.972Z,79.50
2018-09-05T02:44:44.549Z,79.50
2018-09-05T02:45:18.425Z,79.60
2018-09-05T02:45:52.192Z,80.30
2018-09-05T02:46:25.677Z,79.50
2018-09-05T02:46:59.192Z,79.40
2018-09-05T02:47:33.291Z,79.40
2018-09-05T02:48:07.818Z,79.30
2018-09-05T02:48:41.354Z,79.20
2018-09-05T02:49:15.172Z,79.20
2018-09-05T02:49:48.636Z,79.20
2018-09-05T02:50:22.173Z,79.30
2018-09-05T02:50:55.642Z,79.40
2018-09-05T02:51:29.173Z,79.40
2018-09-05T02:52:02.690Z,79.30
2018-09-05T02:52:36.312Z,78.80
2018-09-05T02:53:09.800Z,78.90
2018-09-05T02:53:43.463Z,78.90
2018-09-05T02:54:17.755Z,78.70
2018-09-05T02:54:51.285Z,78.70
2018-09-05T02:55:29.991Z,78.70
2018-09-05T02:56:04.451Z,78.80
2018-09-05T02:56:38.032Z,79.00
2018-09-05T02:57:11.519Z,79.00
2018-09-05T02:57:45.075Z,79.10
2018-09-05T02:58:19.303Z,79.30
2018-09-05T02:58:53.560Z,79.30
2018-09-05T02:59:27.144Z,79.20
2018-09-05T03:00:00.919Z,79.30
2018-09-05T03:00:34.428Z,79.20
2018-09-05T03:01:08.016Z,79.20
2018-09-05T03:01:41.695Z,79.40
2018-09-05T03:02:15.311Z,79.30
2018-09-05T03:02:48.901Z,79.40
2018-09-05T03:03:22.439Z,79.20
2018-09-05T03:03:55.913Z,79.10
2018-09-05T03:04:30.172Z,79.10
2018-09-05T03:05:03.656Z,79.10
2018-09-05T03:05:37.191Z,79.20
2018-09-05T03:06:10.677Z,79.10
2018-09-05T03:06:44.225Z,79.10
2018-09-05T03:07:17.757Z,79.00
2018-09-05T03:07:51.217Z,78.70
2018-09-05T03:08:25.532Z,78.60
2018-09-05T03:08:59.009Z,79.00
2018-09-05T03:09:32.488Z,79.00
2018-09-05T03:10:06.021Z,79.10
2018-09-05T03:10:39.540Z,79.20
2018-09-05T03:11:13.000Z,79.20
2018-09-05T03:11:46.589Z,79.00
2018-09-05T03:12:21.796Z,78.80
2018-09-05T03:12:55.308Z,79.00
2018-09-05T03:13:28.834Z,79.10
2018-09-05T03:14:02.385Z,79.20
2018-09-05T03:14:35.911Z,79.30
2018-09-05T03:15:09.480Z,79.20
2018-09-05T03:15:43.818Z,79.10
2018-09-05T03:16:18.661Z,79.00
2018-09-05T03:16:52.922Z,79.80
2018-09-05T03:17:27.180Z,79.10
2018-09-05T03:18:00.705Z,79.00
2018-09-05T03:18:34.247Z,79.10
2018-09-05T03:19:07.697Z,79.00
2018-09-05T03:19:41.168Z,79.20
2018-09-05T03:20:15.217Z,79.20
2018-09-05T03:20:48.812Z,79.20
2018-09-05T03:21:22.356Z,79.20
2018-09-05T03:21:56.594Z,79.00
2018-09-05T03:22:30.131Z,78.80
2018-09-05T03:23:03.924Z,78.80
2018-09-05T03:23:37.824Z,79.60
2018-09-05T03:24:11.259Z,79.00
2018-09-05T03:24:45.409Z,79.10
2018-09-05T03:25:18.954Z,78.30
2018-09-05T03:25:52.431Z,78.90
2018-09-05T03:26:25.972Z,78.80
2018-09-05T03:26:59.967Z,79.00
2018-09-05T03:27:34.045Z,78.90
2018-09-05T03:28:08.835Z,79.00
2018-09-05T03:28:42.930Z,78.90
2018-09-05T03:29:16.573Z,79.00
2018-09-05T03:29:50.142Z,79.00
2018-09-05T03:30:24.775Z,78.80
2018-09-05T03:30:58.317Z,79.00
2018-09-05T03:31:31.854Z,78.90
2018-09-05T03:32:05.700Z,78.90
2018-09-05T03:32:39.217Z,79.00
2018-09-05T03:33:12.680Z,79.00
2018-09-05T03:33:46.863Z,78.90
2018-09-05T03:34:20.373Z,78.80
2018-09-05T03:34:54.017Z,78.80
2018-09-05T03:35:28.133Z,78.90
2018-09-05T03:36:01.753Z,79.20
2018-09-05T03:36:35.311Z,79.20
2018-09-05T03:37:08.796Z,79.00
2018-09-05T03:37:42.296Z,78.90
2018-09-05T03:38:15.900Z,79.10
2018-09-05T03:38:49.451Z,79.00
2018-09-05T03:39:23.025Z,79.00
2018-09-05T03:39:56.557Z,79.00
2018-09-05T03:40:30.496Z,79.20
2018-09-05T03:41:04.087Z,79.00
2018-09-05T03:41:38.342Z,78.80
2018-09-05T03:42:12.492Z,78.90
2018-09-05T03:42:46.003Z,79.10
2018-09-05T03:43:19.522Z,79.30
2018-09-05T03:43:53.077Z,79.60
2018-09-05T03:44:27.361Z,79.40
2018-09-05T03:45:01.551Z,79.40
2018-09-05T03:45:35.173Z,79.40
2018-09-05T03:46:08.758Z,79.30
2018-09-05T03:46:42.343Z,79.20
2018-09-05T03:47:15.831Z,79.10
2018-09-05T03:47:49.365Z,79.30
2018-09-05T03:48:23.226Z,79.20
2018-09-05T03:48:57.663Z,79.00
2018-09-05T03:49:31.275Z,79.30
2018-09-05T03:50:05.659Z,79.40
2018-09-05T03:50:39.234Z,79.10
2018-09-05T03:51:13.276Z,78.90
2018-09-05T03:51:46.796Z,79.00
2018-09-05T03:52:21.368Z,79.10
2018-09-05T03:52:56.799Z,78.70
2018-09-05T03:53:31.990Z,78.60
2018-09-05T03:54:06.180Z,78.70
2018-09-05T03:54:39.688Z,78.70
2018-09-05T03:55:13.274Z,78.80
2018-09-05T03:55:46.788Z,79.00
2018-09-05T03:56:20.297Z,78.90
2018-09-05T03:56:54.496Z,78.80
2018-09-05T03:57:28.764Z,78.80
2018-09-05T03:58:02.859Z,78.50
2018-09-05T03:58:36.337Z,78.50
2018-09-05T03:59:09.867Z,78.40
2018-09-05T03:59:43.932Z,78.40
2018-09-05T04:00:17.535Z,78.60
2018-09-05T04:00:51.893Z,78.80
2018-09-05T04:01:25.449Z,78.90
2018-09-05T04:01:59.141Z,78.80
2018-09-05T04:02:33.200Z,78.40
2018-09-05T04:03:06.720Z,78.40
2018-09-05T04:03:40.246Z,78.40
2018-09-05T04:04:13.804Z,78.70
2018-09-05T04:04:47.328Z,78.80
2018-09-05T04:05:20.797Z,78.90
2018-09-05T04:05:54.912Z,78.80
2018-09-05T04:06:28.455Z,78.80
2018-09-05T04:07:02.023Z,78.70
2018-09-05T04:07:35.541Z,78.50
2018-09-05T04:08:09.062Z,78.60
2018-09-05T04:08:42.586Z,78.70
2018-09-05T04:09:16.116Z,78.80
2018-09-05T04:09:49.608Z,78.70
2018-09-05T04:10:23.724Z,78.80
2018-09-05T04:10:57.282Z,78.80
2018-09-05T04:11:31.383Z,78.60
2018-09-05T04:12:05.966Z,78.50
2018-09-05T04:12:40.509Z,78.80
2018-09-05T04:13:14.111Z,79.70
2018-09-05T04:13:47.815Z,78.80
2018-09-05T04:14:21.456Z,78.70
2018-09-05T04:14:55.080Z,78.70
2018-09-05T04:15:28.611Z,78.50
2018-09-05T04:16:02.135Z,78.70
2018-09-05T04:16:35.820Z,78.80
2018-09-05T04:17:09.419Z,78.80
2018-09-05T04:17:42.916Z,78.80
2018-09-05T04:18:16.457Z,78.70
2018-09-05T04:18:49.967Z,79.20
2018-09-05T04:19:23.633Z,78.70
2018-09-05T04:19:57.417Z,78.50
2018-09-05T04:20:31.104Z,78.50
2018-09-05T04:21:04.604Z,78.70
2018-09-05T04:21:38.536Z,79.20
2018-09-05T04:22:12.133Z,78.60
2018-09-05T04:22:45.727Z,78.70
2018-09-05T04:23:19.200Z,78.80
2018-09-05T04:23:52.691Z,78.90
2018-09-05T04:24:26.271Z,78.50
2018-09-05T04:24:59.911Z,78.70
2018-09-05T04:25:33.437Z,78.80
2018-09-05T04:26:07.000Z,79.00
2018-09-05T04:26:40.644Z,78.90
2018-09-05T04:27:14.193Z,78.70
2018-09-05T04:27:47.793Z,77.90
2018-09-05T04:28:21.742Z,77.90
2018-09-05T04:28:55.280Z,78.00
2018-09-05T04:29:28.811Z,78.40
2018-09-05T04:30:02.336Z,78.30
2018-09-05T04:30:36.808Z,78.30
2018-09-05T04:31:11.524Z,78.30
2018-09-05T04:31:45.584Z,78.40
2018-09-05T04:32:19.200Z,78.40
2018-09-05T04:32:53.204Z,78.40
2018-09-05T04:33:26.813Z,78.60
2018-09-05T04:34:00.374Z,78.70
2018-09-05T04:34:33.962Z,78.40
2018-09-05T04:35:07.515Z,78.40
2018-09-05T04:35:40.997Z,78.60
2018-09-05T04:36:15.701Z,78.60
2018-09-05T04:36:49.248Z,78.60
2018-09-05T04:37:22.735Z,78.60
2018-09-05T04:37:56.762Z,78.70
2018-09-05T04:38:30.381Z,78.70
2018-09-05T04:39:05.179Z,78.70
2018-09-05T04:39:38.775Z,78.70
2018-09-05T04:40:12.256Z,78.50
2018-09-05T04:40:45.783Z,78.40
2018-09-05T04:41:19.228Z,78.10
2018-09-05T04:41:53.055Z,77.40
2018-09-05T04:42:27.484Z,77.20
2018-09-05T04:43:01.056Z,77.50
2018-09-05T04:43:34.536Z,76.50
2018-09-05T04:44:08.499Z,76.40
2018-09-05T04:44:42.263Z,76.40
2018-09-05T04:45:15.836Z,76.40
2018-09-05T04:45:49.363Z,76.20
2018-09-05T04:46:22.884Z,76.20
2018-09-05T04:46:56.417Z,76.30
2018-09-05T04:47:30.030Z,76.40
2018-09-05T04:48:05.240Z,76.40
2018-09-05T04:48:38.806Z,76.60
2018-09-05T04:49:12.301Z,76.70
2018-09-05T04:49:46.576Z,77.00
2018-09-05T04:50:20.166Z,77.10
2018-09-05T04:50:53.726Z,77.50
2018-09-05T04:51:27.330Z,77.60
2018-09-05T04:52:00.826Z,77.70
2018-09-05T04:52:34.351Z,77.60
2018-09-05T04:53:07.943Z,78.00
2018-09-05T04:53:42.255Z,78.20
2018-09-05T04:54:15.843Z,78.20
2018-09-05T04:54:50.067Z,78.20
2018-09-05T04:55:24.200Z,78.30
2018-09-05T04:55:57.826Z,78.30
2018-09-05T04:56:32.756Z,78.50
2018-09-05T04:57:06.250Z,78.50
2018-09-05T04:57:39.777Z,78.60
2018-09-05T04:58:13.323Z,78.60
2018-09-05T04:58:46.882Z,78.30
2018-09-05T04:59:20.415Z,78.00
2018-09-05T04:59:53.967Z,77.80
2018-09-05T05:00:27.548Z,78.00
2018-09-05T05:01:01.749Z,78.00
2018-09-05T05:01:36.017Z,78.30
2018-09-05T05:02:09.624Z,78.50
2018-09-05T05:02:43.210Z,78.50
2018-09-05T05:03:16.697Z,78.30
2018-09-05T05:03:50.388Z,78.10
2018-09-05T05:04:23.987Z,78.20
2018-09-05T05:04:57.898Z,78.10
2018-09-05T05:05:32.860Z,78.00
2018-09-05T05:06:06.705Z,78.10
2018-09-05T05:06:40.281Z,78.00
2018-09-05T05:07:13.873Z,77.70
2018-09-05T05:07:47.945Z,77.20
2018-09-05T05:08:21.504Z,76.90
2018-09-05T05:08:55.059Z,77.20
2018-09-05T05:09:29.456Z,77.60
2018-09-05T05:10:03.642Z,77.60
2018-09-05T05:10:37.385Z,77.90
2018-09-05T05:11:10.889Z,78.10
2018-09-05T05:11:44.363Z,78.00
2018-09-05T05:12:17.885Z,77.90
2018-09-05T05:12:51.358Z,77.80
2018-09-05T05:13:24.852Z,78.00
2018-09-05T05:13:58.404Z,78.00
2018-09-05T05:14:32.012Z,78.00
2018-09-05T05:15:05.556Z,78.10
2018-09-05T05:15:39.101Z,78.20
2018-09-05T05:16:13.077Z,78.20
2018-09-05T05:16:46.775Z,78.30
2018-09-05T05:17:20.767Z,78.40
2018-09-05T05:17:54.491Z,78.30
2018-09-05T05:18:28.065Z,78.20
2018-09-05T05:19:01.682Z,77.80
2018-09-05T05:19:35.269Z,77.50
2018-09-05T05:20:08.959Z,76.90
2018-09-05T05:20:42.791Z,76.70
2018-09-05T05:21:16.364Z,76.70
2018-09-05T05:21:49.884Z,76.70
2018-09-05T05:22:23.484Z,76.70
2018-09-05T05:22:57.051Z,76.80
2018-09-05T05:23:30.685Z,76.80
2018-09-05T05:24:04.171Z,76.70
2018-09-05T05:24:37.676Z,76.70
2018-09-05T05:25:11.364Z,77.10
2018-09-05T05:25:44.951Z,77.30
2018-09-05T05:26:18.427Z,77.30
2018-09-05T05:26:52.014Z,77.20
2018-09-05T05:27:25.567Z,77.30
2018-09-05T05:27:59.184Z,77.60
2018-09-05T05:28:32.821Z,77.90
2018-09-05T05:29:06.453Z,78.30
2018-09-05T05:29:40.038Z,78.50
2018-09-05T05:30:13.629Z,78.40
2018-09-05T05:30:47.204Z,78.20
2018-09-05T05:31:20.712Z,77.60
2018-09-05T05:31:54.217Z,77.40
2018-09-05T05:32:27.839Z,77.20
2018-09-05T05:33:01.260Z,77.00
2018-09-05T05:33:34.741Z,77.00
2018-09-05T05:34:08.284Z,77.30
2018-09-05T05:34:41.887Z,77.60
2018-09-05T05:35:15.417Z,77.70
2018-09-05T05:35:49.584Z,78.00
2018-09-05T05:36:23.163Z,77.70
2018-09-05T05:36:56.696Z,77.70
2018-09-05T05:37:30.296Z,77.60
2018-09-05T05:38:03.970Z,77.70
2018-09-05T05:38:37.537Z,77.90
2018-09-05T05:39:11.967Z,78.00
2018-09-05T05:39:46.324Z,77.90
2018-09-05T05:40:20.021Z,77.30
2018-09-05T05:40:53.595Z,77.10
2018-09-05T05:41:27.710Z,76.30
2018-09-05T05:42:01.327Z,76.00
2018-09-05T05:42:36.188Z,76.00
2018-09-05T05:43:09.783Z,76.30
2018-09-05T05:43:44.334Z,76.70
2018-09-05T05:44:18.422Z,77.10
2018-09-05T05:44:52.017Z,77.30
2018-09-05T05:45:25.560Z,77.20
2018-09-05T05:45:59.028Z,77.20
2018-09-05T05:46:34.251Z,77.30
2018-09-05T05:47:07.820Z,77.40
2018-09-05T05:47:41.281Z,77.60
2018-09-05T05:48:14.783Z,77.50
2018-09-05T05:48:48.504Z,77.70
2018-09-05T05:49:22.148Z,77.80
2018-09-05T05:49:56.017Z,77.80
2018-09-05T05:50:30.294Z,77.90
2018-09-05T05:51:04.494Z,78.10
2018-09-05T05:51:38.617Z,78.20
2018-09-05T05:52:12.149Z,77.90
2018-09-05T05:52:45.788Z,78.00
2018-09-05T05:53:19.401Z,78.10
2018-09-05T05:53:52.956Z,78.30
2018-09-05T05:54:27.601Z,78.20
2018-09-05T05:55:01.814Z,78.00
2018-09-05T05:55:36.344Z,77.70
2018-09-05T05:56:10.553Z,77.70
2018-09-05T05:56:44.689Z,77.80
2018-09-05T05:57:18.352Z,78.00
2018-09-05T05:57:51.904Z,78.10
2018-09-05T05:58:25.378Z,78.10
2018-09-05T05:58:58.863Z,77.90
2018-09-05T05:59:33.814Z,77.50
2018-09-05T06:00:07.997Z,77.10
2018-09-05T06:00:41.552Z,77.00
2018-09-05T06:01:15.117Z,77.40
2018-09-05T06:01:48.607Z,77.50
2018-09-05T06:02:22.118Z,77.10
2018-09-05T06:02:56.320Z,77.30
2018-09-05T06:03:29.873Z,77.40
2018-09-05T06:04:05.085Z,77.50
2018-09-05T06:04:38.659Z,77.60
2018-09-05T06:05:12.258Z,77.50
2018-09-05T06:05:45.811Z,77.10
2018-09-05T06:06:19.375Z,76.40
2018-09-05T06:06:52.808Z,75.80
2018-09-05T06:07:26.348Z,75.60
2018-09-05T06:07:59.917Z,75.30
2018-09-05T06:08:34.931Z,75.40
2018-09-05T06:09:10.692Z,75.20
2018-09-05T06:09:44.192Z,75.20
2018-09-05T06:10:17.826Z,75.40
2018-09-05T06:10:51.316Z,75.10
2018-09-05T06:11:24.844Z,75.90
2018-09-05T06:11:58.395Z,75.20
2018-09-05T06:12:32.263Z,75.40
2018-09-05T06:13:05.807Z,75.60
2018-09-05T06:13:40.155Z,75.40
2018-09-05T06:14:13.771Z,75.40
2018-09-05T06:14:47.306Z,75.30
2018-09-05T06:15:21.612Z,75.20
2018-09-05T06:15:55.078Z,74.90
2018-09-05T06:16:28.636Z,74.50
2018-09-05T06:17:02.256Z,74.70
2018-09-05T06:17:36.594Z,75.10
2018-09-05T06:18:10.096Z,75.00
2018-09-05T06:18:44.126Z,74.70
2018-09-05T06:19:17.682Z,74.60
2018-09-05T06:19:51.853Z,74.30
2018-09-05T06:20:25.780Z,74.00
2018-09-05T06:20:59.361Z,74.10
2018-09-05T06:21:32.979Z,74.10
2018-09-05T06:22:06.580Z,74.10
2018-09-05T06:22:40.073Z,74.50
2018-09-05T06:23:13.640Z,74.50
2018-09-05T06:23:47.181Z,74.40
2018-09-05T06:24:20.752Z,73.90
2018-09-05T06:24:54.373Z,73.60
2018-09-05T06:25:27.881Z,73.80
2018-09-05T06:26:01.447Z,73.90
2018-09-05T06:26:35.762Z,74.70
2018-09-05T06:27:09.304Z,74.00
2018-09-05T06:27:43.511Z,74.10
2018-09-05T06:28:17.215Z,74.90
2018-09-05T06:28:50.762Z,74.60
2018-09-05T06:29:24.303Z,75.10
2018-09-05T06:29:57.844Z,75.50
2018-09-05T06:30:31.511Z,76.10
2018-09-05T06:31:05.511Z,76.50
2018-09-05T06:31:38.999Z,76.70
2018-09-05T06:32:12.509Z,76.90
2018-09-05T06:32:47.644Z,76.80
2018-09-05T06:33:21.302Z,77.20
2018-09-05T06:33:54.869Z,77.20
2018-09-05T06:34:28.396Z,77.40
2018-09-05T06:35:01.899Z,77.30
2018-09-05T06:35:35.891Z,77.20
2018-09-05T06:36:09.450Z,77.50
2018-09-05T06:36:43.042Z,77.60
2018-09-05T06:37:16.484Z,77.70
2018-09-05T06:37:50.573Z,77.70
2018-09-05T06:38:24.097Z,77.70
2018-09-05T06:38:57.558Z,77.00
2018-09-05T06:39:31.203Z,76.70
2018-09-05T06:40:05.227Z,76.90
2018-09-05T06:40:39.389Z,77.20
2018-09-05T06:41:12.870Z,77.20
2018-09-05T06:41:47.024Z,76.80
2018-09-05T06:42:20.623Z,76.70
2018-09-05T06:42:54.460Z,76.50
2018-09-05T06:43:28.000Z,76.40
2018-09-05T06:44:01.537Z,76.60
2018-09-05T06:44:35.134Z,76.50
2018-09-05T06:45:08.893Z,76.80
2018-09-05T06:45:44.119Z,76.60
2018-09-05T06:46:17.612Z,76.30
2018-09-05T06:46:51.123Z,76.20
2018-09-05T06:47:24.614Z,76.60
2018-09-05T06:47:58.672Z,76.70
2018-09-05T06:48:32.181Z,76.90
2018-09-05T06:49:05.724Z,77.10
2018-09-05T06:49:39.754Z,77.50
2018-09-05T06:50:13.284Z,77.50
2018-09-05T06:50:46.794Z,77.70
2018-09-05T06:51:20.392Z,77.90
2018-09-05T06:51:53.899Z,77.70
2018-09-05T06:52:27.397Z,77.80
2018-09-05T06:53:00.905Z,77.70
2018-09-05T06:53:35.852Z,77.70
2018-09-05T06:54:09.289Z,77.10
2018-09-05T06:54:42.866Z,76.30
2018-09-05T06:55:17.171Z,76.70
2018-09-05T06:55:50.773Z,77.20
2018-09-05T06:56:24.344Z,77.50
2018-09-05T06:56:57.953Z,76.90
2018-09-05T06:57:31.544Z,76.40
2018-09-05T06:58:07.702Z,75.40
2018-09-05T06:58:41.283Z,75.10
2018-09-05T06:59:14.978Z,75.00
2018-09-05T06:59:49.557Z,75.60
2018-09-05T07:00:23.154Z,76.30
2018-09-05T07:00:58.887Z,76.70
2018-09-05T07:01:32.477Z,75.90
2018-09-05T07:02:06.520Z,76.20
2018-09-05T07:02:40.822Z,76.60
2018-09-05T07:03:14.352Z,76.60
2018-09-05T07:03:48.576Z,76.80
2018-09-05T07:04:22.146Z,77.00
2018-09-05T07:04:55.731Z,77.10
2018-09-05T07:05:29.485Z,76.80
2018-09-05T07:06:03.019Z,75.70
2018-09-05T07:06:36.991Z,74.90
2018-09-05T07:07:10.683Z,74.10
2018-09-05T07:07:44.276Z,73.80
2018-09-05T07:08:17.829Z,74.10
2018-09-05T07:08:51.355Z,74.00
2018-09-05T07:09:24.866Z,74.50
2018-09-05T07:09:58.493Z,74.90
2018-09-05T07:10:33.761Z,74.60
2018-09-05T07:11:07.417Z,74.20
2018-09-05T07:11:42.227Z,74.70
2018-09-05T07:12:16.368Z,74.20
2018-09-05T07:12:49.944Z,74.10
2018-09-05T07:13:23.505Z,74.30
2018-09-05T07:13:58.884Z,74.40
2018-09-05T07:14:32.393Z,75.30
2018-09-05T07:15:06.551Z,76.20
2018-09-05T07:15:41.535Z,76.60